Terminal Aerodrome Forecast
Issued by NWS Pueblo, CO

Home | Current Version | Previous Version | Text Only | Print | Product List | Glossary On
Versions: 1 2 3 4 5 6 7 8 9 10 11 12 13 14 15 16 17 18 19
000
FTUS45 KPUB 171127
TAFALS
TAF
KALS 171127Z 1712/1812 VRB06KT P6SM BKN025
     FM171400 VRB06KT P6SM SCT050
     FM171800 20008KT P6SM FEW200
     FM172000 25012KT P6SM FEW250
     FM180300 17007KT P6SM FEW200=

USA.gov is the U.S. government's official web portal to all federal, state and local government web resources and services.